East Liverpool, Ohio
Current Conditions -  °F | °C
As of 11:51 AM on Saturday 20 Dec 2014 (Local Time) from KPIT Reporting Station
Broken Clouds Broken Clouds  
Wind Chill: 29°   Ceiling: 2300
Heat Index: 29°   Visibility: 10mi
Dew Point: 19°   Wind: 3mph
Humidity: 67%   Direction: 350°N
Pressure: 30.25"   Gusts: NA
Location:  40.62°N, 80.58°W
Report Text: KPIT 201651Z 35003KT 10SM BKN023 M02/M07 A3025 RMK AO2 SLP267 T10171072
Loading
Personal Weather Stations






























Interactive Weather Map New forecast layout! Learn more

10-Day Weather Forecast

Advertisements
Track Severe Weather on mobile